Time;durP1;ratioP1;P1;durP2;ratioP2;P2;SDS_P1;SDS_P2;PMS_P1;PMS_P2;Temp;Humidity;BMP_temperature;BMP_pressure;BME280_temperature;BME280_humidity;BME280_pressure;Samples;Min_cycle;Max_cycle;Signal;HPM_P1;HPM_P2
2021/06/06 00:00:36;;;;;;;15.70;11.98;;;21.60;67.00;;;;;;4940138;29;20043;-61
2021/06/06 00:03:05;;;;;;;18.60;14.40;;;21.60;66.80;;;;;;4941382;28;20072;-62
2021/06/06 00:05:48;;;;;;;15.05;11.88;;;21.60;66.80;;;;;;4942187;29;20855;-63
2021/06/06 00:08:14;;;;;;;;;;;21.60;66.80;;;;;;4940968;29;20546;-61
2021/06/06 00:10:41;;;;;;;14.52;12.30;;;21.50;66.80;;;;;;4925128;29;19930;-63
2021/06/06 00:13:06;;;;;;;12.30;9.70;;;21.40;67.20;;;;;;4941764;29;20038;-65
2021/06/06 00:15:32;;;;;;;14.05;10.88;;;21.50;67.20;;;;;;4941241;28;20035;-63
2021/06/06 00:17:58;;;;;;;15.77;13.07;;;21.60;67.20;;;;;;4940132;29;20044;-62
2021/06/06 00:20:27;;;;;;;14.25;10.52;;;21.60;67.00;;;;;;4924442;29;20090;-60
2021/06/06 00:22:54;;;;;;;17.05;12.98;;;21.60;66.90;;;;;;4942047;29;20036;-62
2021/06/06 00:25:22;;;;;;;12.68;10.65;;;21.60;66.80;;;;;;4940843;29;20046;-61
2021/06/06 00:27:48;;;;;;;15.93;11.23;;;21.60;66.80;;;;;;4941131;29;20040;-61
2021/06/06 00:30:15;;;;;;;17.92;13.18;;;21.60;66.80;;;;;;4940073;29;20054;-61
2021/06/06 00:32:41;;;;;;;18.85;13.25;;;21.60;66.70;;;;;;4941225;29;20040;-61
2021/06/06 00:35:10;;;;;;;21.80;15.90;;;21.60;66.80;;;;;;4941097;29;20051;-61
2021/06/06 00:37:36;;;;;;;16.85;13.15;;;21.60;66.80;;;;;;4940534;29;20510;-61
2021/06/06 00:40:04;;;;;;;16.88;12.05;;;21.60;66.80;;;;;;4942147;29;20115;-61
2021/06/06 00:42:30;;;;;;;18.20;11.85;;;21.60;66.80;;;;;;4942670;29;20042;-61
2021/06/06 00:44:56;;;;;;;16.08;12.13;;;21.60;66.80;;;;;;4940686;29;20392;-61
2021/06/06 00:47:23;;;;;;;18.48;12.75;;;21.60;66.80;;;;;;4940842;29;20039;-61
2021/06/06 00:49:49;;;;;;;17.55;12.05;;;21.60;66.80;;;;;;4922940;29;20046;-61
2021/06/06 00:52:17;;;;;;;16.25;12.52;;;21.60;66.80;;;;;;4940224;29;20031;-62
2021/06/06 00:54:47;;;;;;;12.57;11.07;;;21.50;66.80;;;;;;4938994;29;20126;-61
2021/06/06 00:57:20;;;;;;;14.32;11.25;;;21.50;67.00;;;;;;4940916;29;20853;-61
2021/06/06 01:00:00;;;;;;;13.75;11.68;;;21.50;67.00;;;;;;4940275;29;20039;-61
2021/06/06 01:02:26;;;;;;;14.55;10.60;;;21.40;66.90;;;;;;4939982;28;20054;-61
2021/06/06 01:04:51;;;;;;;14.70;10.60;;;21.40;67.00;;;;;;4923469;29;20077;-61
2021/06/06 01:07:17;;;;;;;13.68;10.43;;;21.40;67.00;;;;;;4939858;29;20047;-61
2021/06/06 01:09:43;;;;;;;12.90;9.93;;;21.40;67.10;;;;;;4940271;29;20461;-61
2021/06/06 01:12:26;;;;;;;12.43;9.25;;;21.50;67.10;;;;;;4939535;29;20043;-61
2021/06/06 01:14:55;;;;;;;;;;;21.50;67.00;;;;;;4941010;29;20040;-61
2021/06/06 01:17:40;;;;;;;13.88;9.25;;;21.40;66.80;;;;;;4941786;29;19926;-61
2021/06/06 01:20:12;;;;;;;13.50;10.55;;;21.40;67.30;;;;;;4939034;29;20036;-61
2021/06/06 01:22:47;;;;;;;11.13;9.30;;;21.40;67.10;;;;;;4939388;29;20050;-61
2021/06/06 01:25:30;;;;;;;10.93;9.82;;;21.50;67.10;;;;;;4937345;29;20071;-61
2021/06/06 01:28:23;;;;;;;11.75;9.45;;;21.50;66.80;;;;;;4940329;29;20055;-61
2021/06/06 01:30:54;;;;;;;14.45;11.80;;;21.50;66.70;;;;;;4938758;29;20119;-62
2021/06/06 01:33:27;;;;;;;16.45;11.38;;;21.50;67.20;;;;;;4939644;29;20054;-61
2021/06/06 01:36:11;;;;;;;13.88;10.90;;;21.40;66.80;;;;;;4941621;29;20131;-61
2021/06/06 01:38:51;;;;;;;28.13;20.65;;;21.40;67.10;;;;;;4939379;29;20036;-61
2021/06/06 01:41:22;;;;;;;14.38;10.15;;;21.30;66.70;;;;;;4939867;29;20043;-61
2021/06/06 01:43:52;;;;;;;21.88;16.30;;;21.30;67.10;;;;;;4938901;29;20040;-61
2021/06/06 01:46:24;;;;;;;15.43;11.38;;;21.30;66.90;;;;;;4940457;29;20032;-61
2021/06/06 01:48:52;;;;;;;16.13;11.73;;;21.30;67.30;;;;;;4939373;29;20488;-61
2021/06/06 01:51:36;;;;;;;16.58;11.60;;;21.30;67.20;;;;;;4923162;29;20036;-62
2021/06/06 01:54:06;;;;;;;15.80;12.00;;;21.30;67.20;;;;;;4940871;29;20036;-61
2021/06/06 01:56:36;;;;;;;17.77;12.65;;;21.30;67.30;;;;;;4938884;29;20046;-61
2021/06/06 01:59:09;;;;;;;17.33;12.68;;;21.30;67.20;;;;;;4939474;29;20463;-61
2021/06/06 02:01:36;;;;;;;15.93;12.52;;;21.40;67.20;;;;;;4939428;29;20043;-62
2021/06/06 02:04:02;;;;;;;15.32;11.45;;;21.30;67.10;;;;;;4938703;29;20047;-61
2021/06/06 02:06:35;;;;;;;15.85;12.02;;;21.30;67.10;;;;;;4938986;29;20040;-61
2021/06/06 02:09:06;;;;;;;15.98;12.57;;;21.30;66.90;;;;;;4923216;29;20080;-62
2021/06/06 02:11:48;;;;;;;18.55;12.77;;;21.40;66.80;;;;;;4941026;29;20598;-62
2021/06/06 02:14:22;;;;;;;17.13;12.95;;;21.30;66.70;;;;;;4939002;29;20041;-62
2021/06/06 02:16:54;;;;;;;15.68;11.90;;;21.30;66.90;;;;;;4940406;29;20047;-62
2021/06/06 02:19:24;;;;;;;17.83;12.85;;;21.30;66.90;;;;;;4938713;29;20517;-61
2021/06/06 02:21:51;;;;;;;16.83;12.57;;;21.20;66.90;;;;;;4939106;29;20043;-61
2021/06/06 02:24:17;;;;;;;17.15;13.20;;;21.30;67.00;;;;;;4937643;29;20043;-61
2021/06/06 02:27:09;;;;;;;16.75;12.75;;;21.30;67.00;;;;;;4940018;29;20134;-61
2021/06/06 02:29:35;;;;;;;18.73;13.20;;;21.30;66.90;;;;;;4929704;29;20083;-61
2021/06/06 02:32:23;;;;;;;18.25;13.35;;;21.10;67.10;;;;;;4938036;29;20126;-61
2021/06/06 02:35:03;;;;;;;17.20;13.40;;;21.00;67.50;;;;;;4938535;29;20818;-61
2021/06/06 02:37:36;;;;;;;15.85;11.77;;;21.00;67.80;;;;;;4939313;28;20487;-61
2021/06/06 02:40:11;;;;;;;16.10;12.10;;;21.00;67.70;;;;;;4942891;29;20035;-62
2021/06/06 02:42:42;;;;;;;16.08;11.93;;;21.10;67.50;;;;;;4940840;29;20036;-62
2021/06/06 02:45:22;;;;;;;16.60;12.23;;;21.10;67.30;;;;;;4943719;29;20039;-62
2021/06/06 02:47:50;;;;;;;15.68;11.48;;;21.10;67.20;;;;;;4943208;29;20515;-62
2021/06/06 02:50:24;;;;;;;14.20;10.95;;;21.10;67.30;;;;;;4941836;29;20063;-61
2021/06/06 02:53:01;;;;;;;15.43;10.85;;;21.10;67.40;;;;;;4943315;29;20075;-62
2021/06/06 02:55:42;;;;;;;12.98;10.38;;;21.10;67.20;;;;;;4942886;29;20049;-61
2021/06/06 02:58:17;;;;;;;12.30;9.70;;;21.20;67.10;;;;;;4942477;29;20040;-62
2021/06/06 03:00:48;;;;;;;13.50;10.30;;;21.10;66.90;;;;;;4941885;29;20439;-62
2021/06/06 03:03:22;;;;;;;12.40;8.88;;;21.10;67.00;;;;;;4942274;29;20153;-61
2021/06/06 03:05:49;;;;;;;10.02;8.32;;;21.10;66.90;;;;;;4943137;29;20061;-61
2021/06/06 03:08:15;;;;;;;9.70;8.18;;;21.10;66.90;;;;;;4942590;29;20047;-61
2021/06/06 03:10:43;;;;;;;9.43;7.68;;;21.10;66.90;;;;;;4943293;29;20051;-61
2021/06/06 03:13:20;;;;;;;9.52;8.10;;;21.10;67.10;;;;;;4925514;29;20074;-61
2021/06/06 03:15:51;;;;;;;8.38;7.47;;;21.00;66.80;;;;;;4943408;29;20126;-61
2021/06/06 03:18:18;;;;;;;10.20;7.47;;;21.10;66.90;;;;;;4943316;29;20039;-61
2021/06/06 03:20:47;;;;;;;9.30;7.28;;;21.10;66.70;;;;;;4925425;29;20039;-61
2021/06/06 03:23:18;;;;;;;8.38;6.25;;;21.10;66.60;;;;;;4944007;29;22344;-61
2021/06/06 03:26:05;;;;;;;9.75;7.38;;;21.10;66.70;;;;;;4941686;29;22327;-61
2021/06/06 03:28:33;;;;;;;7.82;7.05;;;21.20;66.30;;;;;;4941260;29;20122;-62
2021/06/06 03:31:37;;;;;;;9.30;7.07;;;21.10;66.20;;;;;;4942067;29;20062;-61
2021/06/06 03:34:05;;;;;;;8.65;7.38;;;21.20;66.30;;;;;;4928992;29;20055;-60
2021/06/06 03:36:40;;;;;;;8.98;7.38;;;21.10;66.30;;;;;;4941239;29;20047;-61
2021/06/06 03:39:13;;;;;;;8.30;6.43;;;21.10;66.10;;;;;;4925114;29;20066;-61
2021/06/06 03:41:39;;;;;;;12.30;11.00;;;21.20;66.30;;;;;;4942267;29;20043;-61
2021/06/06 03:44:05;;;;;;;9.38;7.70;;;21.10;65.80;;;;;;4923347;29;20043;-61
2021/06/06 03:46:32;;;;;;;8.43;6.47;;;21.00;66.00;;;;;;4935965;29;20035;-61
2021/06/06 03:48:58;;;;;;;9.68;6.88;;;20.90;66.30;;;;;;4941047;28;20051;-61
2021/06/06 03:51:26;;;;;;;8.75;6.22;;;21.00;66.50;;;;;;4942450;29;20038;-61
2021/06/06 03:53:52;;;;;;;7.93;6.93;;;21.00;66.50;;;;;;4941892;29;20067;-61
2021/06/06 03:56:18;;;;;;;11.13;6.40;;;21.00;66.50;;;;;;4940950;29;20066;-61
2021/06/06 03:58:44;;;;;;;8.38;7.10;;;21.00;66.50;;;;;;4941760;29;20111;-61
2021/06/06 04:01:11;;;;;;;6.88;6.15;;;20.90;66.60;;;;;;4943346;29;20475;-61
2021/06/06 04:03:37;;;;;;;11.60;8.45;;;20.90;66.80;;;;;;4940704;28;20487;-61
2021/06/06 04:06:04;;;;;;;6.82;6.13;;;20.90;66.70;;;;;;4941934;29;20150;-61
2021/06/06 04:08:30;;;;;;;11.23;9.63;;;20.90;66.80;;;;;;4935799;29;20125;-61
2021/06/06 04:10:56;;;;;;;9.50;6.43;;;20.80;66.60;;;;;;4941253;29;20071;-61
2021/06/06 04:13:22;;;;;;;7.60;6.47;;;20.80;67.00;;;;;;4940478;29;20403;-61
2021/06/06 04:15:49;;;;;;;8.35;6.18;;;20.80;67.00;;;;;;4941459;29;20047;-61
2021/06/06 04:18:19;;;;;;;10.30;5.82;;;20.80;67.00;;;;;;4942903;29;20067;-61
2021/06/06 04:20:47;;;;;;;7.43;5.35;;;20.90;67.30;;;;;;4940926;29;20039;-61
2021/06/06 04:23:14;;;;;;;8.32;6.18;;;20.90;66.80;;;;;;4940988;29;20066;-61
2021/06/06 04:25:41;;;;;;;8.05;6.20;;;20.90;66.60;;;;;;4941622;29;20047;-61
2021/06/06 04:28:08;;;;;;;9.73;6.60;;;21.00;66.50;;;;;;4941967;29;20035;-61
2021/06/06 04:30:34;;;;;;;8.30;5.90;;;21.00;66.60;;;;;;4933889;29;20792;-61
2021/06/06 04:33:06;;;;;;;14.23;8.48;;;20.90;66.60;;;;;;4941588;29;20496;-61
2021/06/06 04:35:32;;;;;;;10.85;6.65;;;20.90;66.90;;;;;;4925134;29;20046;-61
2021/06/06 04:37:58;;;;;;;7.00;6.25;;;20.80;67.10;;;;;;4941681;29;20040;-61
2021/06/06 04:40:24;;;;;;;16.70;11.25;;;20.80;67.30;;;;;;4940967;29;20994;-62
2021/06/06 04:42:50;;;;;;;7.32;5.55;;;20.70;66.70;;;;;;4940493;29;20043;-61
2021/06/06 04:45:16;;;;;;;6.68;5.63;;;20.60;67.40;;;;;;4940509;29;20071;-61
2021/06/06 04:47:42;;;;;;;9.02;6.32;;;20.70;67.70;;;;;;4941013;29;20106;-61
2021/06/06 04:50:10;;;;;;;11.70;8.48;;;20.70;67.30;;;;;;4939165;29;20043;-61
2021/06/06 04:52:36;;;;;;;8.18;6.38;;;20.60;67.10;;;;;;4941977;29;20050;-61
2021/06/06 04:55:16;;;;;;;13.02;10.48;;;20.60;67.20;;;;;;4925194;29;20058;-61
2021/06/06 04:57:42;;;;;;;7.97;6.93;;;20.70;66.70;;;;;;4938950;29;20040;-61
2021/06/06 05:00:16;;;;;;;7.78;6.03;;;20.60;67.00;;;;;;4939950;29;20064;-61
2021/06/06 05:02:42;;;;;;;7.88;5.82;;;20.70;67.40;;;;;;4940271;28;20054;-61
2021/06/06 05:05:08;;;;;;;15.98;12.13;;;20.70;67.50;;;;;;4941559;29;20407;-61
2021/06/06 05:07:34;;;;;;;10.00;6.47;;;20.60;66.80;;;;;;4938863;29;20042;-61
2021/06/06 05:10:01;;;;;;;9.07;6.05;;;20.50;67.90;;;;;;4940588;29;20044;-63
2021/06/06 05:12:27;;;;;;;8.80;7.22;;;20.50;67.90;;;;;;4941124;29;20055;-63
2021/06/06 05:14:53;;;;;;;12.05;9.45;;;20.60;67.90;;;;;;4923975;29;20495;-61
2021/06/06 05:17:18;;;;;;;12.40;7.20;;;20.60;67.50;;;;;;4940406;29;20057;-61
2021/06/06 05:19:44;;;;;;;13.38;8.02;;;20.60;67.60;;;;;;4940623;29;20043;-60
2021/06/06 05:22:11;;;;;;;11.88;7.30;;;20.60;67.40;;;;;;4940702;29;20491;-62
2021/06/06 05:24:37;;;;;;;13.45;6.60;;;20.60;67.70;;;;;;4940074;29;20047;-63
2021/06/06 05:27:04;;;;;;;9.57;6.53;;;20.60;67.90;;;;;;4939750;29;20040;-61
2021/06/06 05:29:30;;;;;;;8.50;6.85;;;20.70;67.80;;;;;;4940412;29;20455;-61
2021/06/06 05:31:56;;;;;;;12.90;8.15;;;20.70;67.40;;;;;;4942427;29;20043;-62
2021/06/06 05:34:23;;;;;;;8.43;6.90;;;20.70;67.30;;;;;;4921891;29;20035;-61
2021/06/06 05:36:49;;;;;;;12.45;8.07;;;20.60;67.30;;;;;;4939092;29;20039;-62
2021/06/06 05:39:15;;;;;;;10.63;7.80;;;20.60;67.10;;;;;;4939224;29;20399;-61
2021/06/06 05:41:42;;;;;;;8.00;6.05;;;20.50;67.10;;;;;;4940540;29;20044;-61
2021/06/06 05:44:08;;;;;;;11.05;6.70;;;20.50;67.60;;;;;;4938966;29;20047;-61
2021/06/06 05:46:34;;;;;;;9.57;7.00;;;20.50;67.80;;;;;;4938936;29;20090;-62
2021/06/06 05:49:00;;;;;;;9.38;6.47;;;20.50;67.70;;;;;;4940979;29;20047;-61
2021/06/06 05:51:26;;;;;;;7.07;4.97;;;20.40;67.90;;;;;;4939850;29;20036;-61
2021/06/06 05:53:53;;;;;;;8.18;5.28;;;20.40;68.20;;;;;;4938679;29;20451;-62
2021/06/06 05:56:19;;;;;;;9.40;5.00;;;20.40;68.00;;;;;;4939116;29;20043;-61
2021/06/06 05:58:45;;;;;;;9.45;5.57;;;20.40;68.30;;;;;;4939171;29;21051;-62
2021/06/06 06:01:11;;;;;;;8.13;4.78;;;20.50;68.80;;;;;;4938732;29;20047;-62
2021/06/06 06:03:38;;;;;;;8.40;5.57;;;20.40;70.00;;;;;;4940221;28;20074;-62
2021/06/06 06:06:05;;;;;;;6.68;4.55;;;20.40;70.60;;;;;;4941328;29;20051;-62
2021/06/06 06:08:35;;;;;;;10.07;5.35;;;20.40;70.00;;;;;;4939153;29;20047;-62
2021/06/06 06:11:03;;;;;;;8.50;5.22;;;20.20;71.00;;;;;;4938580;29;20171;-62
2021/06/06 06:13:30;;;;;;;8.63;5.30;;;20.20;72.90;;;;;;4942605;29;20153;-65
2021/06/06 06:15:57;;;;;;;10.27;5.40;;;20.20;73.20;;;;;;4941102;29;20081;-65
2021/06/06 06:18:25;;;;;;;7.93;4.68;;;20.20;73.50;;;;;;4939183;29;20039;-65
2021/06/06 06:20:52;;;;;;;7.72;4.18;;;20.30;73.50;;;;;;4939425;29;20062;-65
2021/06/06 06:23:18;;;;;;;7.53;4.47;;;20.30;73.50;;;;;;4940061;29;20043;-65
2021/06/06 06:25:44;;;;;;;9.77;5.38;;;20.30;73.50;;;;;;4939116;29;20036;-65
2021/06/06 06:28:11;;;;;;;8.27;4.38;;;20.30;73.20;;;;;;4939270;29;20043;-65
2021/06/06 06:30:38;;;;;;;11.57;8.57;;;20.30;73.30;;;;;;4938793;29;20061;-65
2021/06/06 06:33:06;;;;;;;52.00;46.75;;;20.30;73.30;;;;;;4938509;29;20043;-64
2021/06/06 06:35:33;;;;;;;31.15;27.90;;;20.30;73.20;;;;;;4937687;29;20131;-65
2021/06/06 06:38:00;;;;;;;20.92;18.70;;;20.30;73.10;;;;;;4938266;29;20075;-65
2021/06/06 06:40:26;;;;;;;23.15;19.08;;;20.30;72.20;;;;;;4921640;29;20043;-64
2021/06/06 06:42:54;;;;;;;22.38;15.60;;;20.20;72.20;;;;;;4938949;29;20569;-65
2021/06/06 06:45:25;;;;;;;13.68;10.90;;;20.20;72.60;;;;;;4939089;29;20598;-69
2021/06/06 06:47:51;;;;;;;15.65;8.77;;;20.20;72.30;;;;;;4937322;29;20066;-70
2021/06/06 06:50:19;;;;;;;9.32;6.85;;;20.20;72.20;;;;;;4939641;29;20035;-67
2021/06/06 06:52:45;;;;;;;11.98;6.95;;;20.30;72.40;;;;;;4939673;29;20534;-67
2021/06/06 06:55:15;;;;;;;11.45;7.13;;;20.40;72.40;;;;;;4939427;29;20126;-67
2021/06/06 06:57:41;;;;;;;8.13;5.15;;;20.40;72.10;;;;;;4940895;29;20137;-66
2021/06/06 07:00:11;;;;;;;6.95;5.22;;;20.40;72.00;;;;;;4920908;29;20042;-67
2021/06/06 07:02:38;;;;;;;7.07;4.35;;;20.20;71.70;;;;;;4938987;29;20075;-67
2021/06/06 07:05:05;;;;;;;8.85;3.85;;;20.20;72.00;;;;;;4921436;29;20074;-67
2021/06/06 07:07:31;;;;;;;6.78;4.13;;;20.10;71.60;;;;;;4940132;29;20448;-67
2021/06/06 07:09:58;;;;;;;4.80;4.25;;;20.20;71.70;;;;;;4939952;29;20035;-67
2021/06/06 07:12:24;;;;;;;4.88;3.70;;;20.20;71.00;;;;;;4939147;29;20364;-66
2021/06/06 07:14:50;;;;;;;5.47;3.60;;;20.20;71.30;;;;;;4939104;29;20040;-66
2021/06/06 07:17:16;;;;;;;5.25;4.35;;;20.20;71.40;;;;;;4940781;29;20047;-66
2021/06/06 07:19:41;;;;;;;4.78;3.70;;;20.10;71.10;;;;;;4938928;29;20494;-66
2021/06/06 07:22:08;;;;;;;3.95;3.40;;;20.00;71.00;;;;;;4921377;29;20074;-65
2021/06/06 07:24:35;;;;;;;6.32;4.00;;;20.10;71.80;;;;;;4941970;29;20150;-66
2021/06/06 07:27:01;;;;;;;6.38;4.35;;;20.30;70.70;;;;;;4942444;29;20051;-66
2021/06/06 07:29:36;;;;;;;4.30;3.90;;;20.40;70.10;;;;;;4943177;29;20082;-65
2021/06/06 07:32:03;;;;;;;5.78;3.78;;;20.40;69.90;;;;;;4943537;29;20135;-66
2021/06/06 07:34:31;;;;;;;5.63;5.07;;;20.40;69.70;;;;;;4941362;29;20129;-66
2021/06/06 07:37:01;;;;;;;5.25;3.30;;;20.40;68.90;;;;;;4941976;29;20043;-67
2021/06/06 07:39:37;;;;;;;4.60;4.03;;;20.40;68.90;;;;;;4943982;28;20038;-59
2021/06/06 07:42:10;;;;;;;5.60;3.30;;;20.40;68.90;;;;;;4942759;29;20039;-59
2021/06/06 07:44:36;;;;;;;4.97;3.65;;;20.40;68.90;;;;;;4940634;29;20103;-59
2021/06/06 07:47:05;;;;;;;5.05;4.55;;;20.30;69.10;;;;;;4926247;29;20084;-59
2021/06/06 07:49:34;;;;;;;4.70;4.20;;;20.30;68.70;;;;;;4942099;29;20035;-58
2021/06/06 07:52:00;;;;;;;4.50;3.88;;;20.30;68.50;;;;;;4941613;29;20059;-59
2021/06/06 07:54:27;;;;;;;6.18;4.43;;;20.30;68.70;;;;;;4942102;29;20043;-59
2021/06/06 07:56:54;;;;;;;3.40;3.00;;;20.30;68.90;;;;;;4943003;29;20035;-58
2021/06/06 07:59:21;;;;;;;5.07;3.55;;;20.40;69.20;;;;;;4924658;29;20582;-58
2021/06/06 08:01:48;;;;;;;4.60;3.70;;;20.40;68.90;;;;;;4939690;29;20122;-66
2021/06/06 08:04:14;;;;;;;5.35;3.83;;;20.40;68.80;;;;;;4941655;28;20188;-57
2021/06/06 08:06:40;;;;;;;4.35;3.20;;;20.40;69.40;;;;;;4942797;29;20039;-57
2021/06/06 08:09:06;;;;;;;4.45;3.63;;;20.40;68.70;;;;;;4941442;29;20043;-57
2021/06/06 08:11:34;;;;;;;4.35;3.58;;;20.40;68.50;;;;;;4941296;29;20067;-57
2021/06/06 08:14:00;;;;;;;3.92;2.92;;;20.40;68.80;;;;;;4940959;29;20046;-57
2021/06/06 08:16:25;;;;;;;5.07;3.05;;;20.40;68.90;;;;;;4940416;29;20836;-57
2021/06/06 08:18:51;;;;;;;4.90;3.45;;;20.40;68.90;;;;;;4940877;29;20054;-58
2021/06/06 08:21:23;;;;;;;3.42;3.00;;;20.40;69.40;;;;;;4940654;29;20067;-57
2021/06/06 08:23:49;;;;;;;3.03;2.80;;;20.30;68.90;;;;;;4941942;29;20035;-58
2021/06/06 08:26:18;;;;;;;4.35;2.80;;;20.30;68.90;;;;;;4940806;29;20047;-58
2021/06/06 08:28:45;;;;;;;4.90;3.45;;;20.20;69.00;;;;;;4941604;29;20035;-58
2021/06/06 08:31:16;;;;;;;3.22;2.92;;;20.20;69.20;;;;;;4942874;29;20048;-57
2021/06/06 08:33:42;;;;;;;3.95;3.15;;;20.20;69.30;;;;;;4941113;29;20048;-57
2021/06/06 08:36:17;;;;;;;3.30;2.95;;;20.20;69.20;;;;;;4940769;28;20484;-57
2021/06/06 08:38:44;;;;;;;3.17;2.58;;;20.30;69.20;;;;;;4941581;29;20035;-58
2021/06/06 08:41:16;;;;;;;2.95;2.65;;;20.30;69.10;;;;;;4940451;29;20039;-58
2021/06/06 08:43:50;;;;;;;2.78;2.13;;;20.40;68.80;;;;;;4940649;29;20055;-58
2021/06/06 08:46:19;;;;;;;3.47;2.60;;;20.40;68.70;;;;;;4941688;29;20051;-57
2021/06/06 08:48:45;;;;;;;3.15;2.60;;;20.40;68.70;;;;;;4941092;29;20043;-64
2021/06/06 08:51:23;;;;;;;3.75;2.75;;;20.40;68.80;;;;;;4941913;29;20059;-58
2021/06/06 08:54:04;;;;;;;3.15;2.55;;;20.40;68.70;;;;;;4940203;29;20039;-60
2021/06/06 08:56:34;;;;;;;3.63;2.38;;;20.40;68.50;;;;;;4940930;29;20617;-57
2021/06/06 08:59:18;;;;;;;4.80;3.10;;;20.50;68.50;;;;;;4939959;29;20067;-58
2021/06/06 09:02:17;;;;;;;3.13;2.63;;;20.40;68.10;;;;;;4940888;29;20041;-58
2021/06/06 09:04:43;;;;;;;3.47;2.65;;;20.40;68.20;;;;;;4931457;29;20432;-58
2021/06/06 09:07:30;;;;;;;4.30;3.50;;;20.40;68.50;;;;;;4940595;29;20039;-58
2021/06/06 09:10:01;;;;;;;3.08;2.78;;;20.40;68.20;;;;;;4937884;29;20065;-58
2021/06/06 09:12:27;;;;;;;3.28;2.80;;;20.40;68.40;;;;;;4941012;29;20436;-57
2021/06/06 09:14:55;;;;;;;2.97;2.67;;;20.40;68.40;;;;;;4939712;29;20032;-64
2021/06/06 09:17:43;;;;;;;2.67;2.40;;;20.40;68.30;;;;;;4940069;29;20043;-59
2021/06/06 09:20:30;;;;;;;3.13;2.25;;;20.40;68.30;;;;;;4940471;29;20143;-58
2021/06/06 09:23:12;;;;;;;4.55;3.00;;;20.40;68.30;;;;;;4940481;29;20047;-58
2021/06/06 09:25:41;;;;;;;2.90;2.60;;;20.50;68.30;;;;;;4939231;29;20044;-59
2021/06/06 09:28:13;;;;;;;2.35;2.15;;;20.60;68.20;;;;;;4940907;29;20039;-63
2021/06/06 09:30:41;;;;;;;10.65;3.03;;;20.60;68.00;;;;;;4939498;29;20042;-59
2021/06/06 09:33:13;;;;;;;5.22;3.60;;;20.70;68.60;;;;;;4939676;29;20044;-58
2021/06/06 09:35:57;;;;;;;6.53;3.03;;;20.70;68.60;;;;;;4936048;29;20490;-59
2021/06/06 09:38:29;;;;;;;8.65;3.45;;;20.70;68.20;;;;;;4932325;29;20435;-59
2021/06/06 09:41:08;;;;;;;5.63;3.13;;;20.80;68.80;;;;;;4932480;29;21418;-59
2021/06/06 09:43:34;;;;;;;8.95;3.83;;;20.80;68.80;;;;;;4932220;29;20475;-58
2021/06/06 09:46:16;;;;;;;12.23;9.82;;;20.80;68.70;;;;;;4932860;29;20055;-58
2021/06/06 09:48:44;;;;;;;20.17;15.32;;;20.80;68.60;;;;;;4930157;29;20069;-58
2021/06/06 09:51:29;;;;;;;30.05;23.48;;;20.80;68.40;;;;;;4927609;29;20083;-59
2021/06/06 09:54:16;;;;;;;28.55;22.92;;;20.80;68.40;;;;;;4924910;29;20066;-58
2021/06/06 09:56:51;;;;;;;24.55;19.88;;;20.90;68.10;;;;;;4930651;29;20039;-58
2021/06/06 09:59:29;;;;;;;22.25;17.25;;;20.90;67.90;;;;;;4920097;28;20039;-58
2021/06/06 10:02:12;;;;;;;20.02;15.70;;;20.90;67.60;;;;;;4910683;29;20051;-61
2021/06/06 10:04:44;;;;;;;17.10;12.40;;;21.00;67.40;;;;;;4909991;29;20094;-58
2021/06/06 10:07:29;;;;;;;12.93;10.40;;;21.00;67.20;;;;;;4931976;29;20041;-58
2021/06/06 10:09:57;;;;;;;11.80;9.25;;;21.00;67.10;;;;;;4933051;29;20053;-57
2021/06/06 10:12:26;;;;;;;8.73;7.28;;;21.00;67.00;;;;;;4932238;29;20042;-58
2021/06/06 10:14:58;;;;;;;8.68;6.65;;;21.10;66.90;;;;;;4933591;29;20055;-58
2021/06/06 10:17:40;;;;;;;7.45;6.40;;;21.10;66.70;;;;;;4933306;29;20861;-58
2021/06/06 10:20:19;;;;;;;7.22;6.47;;;21.10;66.40;;;;;;4933388;29;20047;-58
2021/06/06 10:22:52;;;;;;;6.05;5.45;;;21.00;66.80;;;;;;4932671;29;20050;-59
2021/06/06 10:25:42;;;;;;;6.18;5.55;;;20.90;66.80;;;;;;4933167;29;20118;-58
2021/06/06 10:28:10;;;;;;;7.03;5.95;;;21.00;66.80;;;;;;4932241;29;20080;-58
2021/06/06 10:30:58;;;;;;;5.72;5.18;;;21.00;66.70;;;;;;4933782;29;20503;-58
2021/06/06 10:33:30;;;;;;;5.82;4.85;;;21.00;66.50;;;;;;4933260;29;20051;-58
2021/06/06 10:35:59;;;;;;;5.75;4.63;;;21.00;66.60;;;;;;4933024;29;20047;-58
2021/06/06 10:38:25;;;;;;;6.68;5.47;;;21.10;66.70;;;;;;4932253;29;20027;-57
2021/06/06 10:40:54;;;;;;;8.88;5.43;;;21.10;66.60;;;;;;4915009;29;20075;-57
2021/06/06 10:43:29;;;;;;;6.15;5.53;;;21.10;66.60;;;;;;4932569;29;20043;-57
2021/06/06 10:46:28;;;;;;;6.55;5.53;;;21.10;66.60;;;;;;4930856;29;20163;-58
2021/06/06 10:49:17;;;;;;;6.18;5.38;;;21.10;66.50;;;;;;4931392;29;20051;-59
2021/06/06 10:51:50;;;;;;;6.50;5.22;;;21.00;67.00;;;;;;4931400;29;20472;-59
2021/06/06 10:54:28;;;;;;;6.78;5.60;;;20.90;66.70;;;;;;4930115;29;20050;-59
2021/06/06 10:56:58;;;;;;;7.35;5.38;;;21.00;67.00;;;;;;4927865;28;20048;-59
2021/06/06 10:59:35;;;;;;;6.05;4.90;;;20.90;67.10;;;;;;4931375;29;20050;-59
2021/06/06 11:02:02;;;;;;;6.40;4.93;;;21.00;67.30;;;;;;4934410;29;20047;-59
2021/06/06 11:04:34;;;;;;;8.95;5.10;;;21.00;67.50;;;;;;4935229;29;20055;-60
2021/06/06 11:07:18;;;;;;;5.40;4.63;;;20.90;67.50;;;;;;4938023;29;20140;-60
2021/06/06 11:09:48;;;;;;;6.80;5.18;;;20.90;67.30;;;;;;4925193;29;20099;-59
2021/06/06 11:12:31;;;;;;;6.65;4.80;;;20.80;67.60;;;;;;4941941;29;21248;-60
2021/06/06 11:14:57;;;;;;;5.10;4.32;;;20.80;67.60;;;;;;4922669;29;20074;-60
2021/06/06 11:17:40;;;;;;;5.88;4.53;;;20.80;67.80;;;;;;4940705;29;20043;-60
2021/06/06 11:20:23;;;;;;;5.38;4.20;;;20.80;67.60;;;;;;4925591;29;20043;-61
2021/06/06 11:22:50;;;;;;;4.63;3.80;;;20.70;67.70;;;;;;4942073;29;20067;-61
2021/06/06 11:25:39;;;;;;;5.15;4.20;;;20.70;68.20;;;;;;4942308;29;20089;-60
2021/06/06 11:28:33;;;;;;;5.82;3.92;;;20.70;68.00;;;;;;4943862;29;20104;-61
2021/06/06 11:31:01;;;;;;;6.63;4.40;;;20.70;68.10;;;;;;4940948;29;20506;-59
2021/06/06 11:33:43;;;;;;;4.72;4.28;;;20.70;68.40;;;;;;4942832;29;20062;-59
2021/06/06 11:36:10;;;;;;;7.38;3.90;;;20.70;68.30;;;;;;4941387;29;20035;-60
2021/06/06 11:38:54;;;;;;;6.97;3.70;;;20.70;68.30;;;;;;4942209;29;20121;-59
2021/06/06 11:41:23;;;;;;;5.05;4.55;;;20.70;68.10;;;;;;4942895;29;20043;-59
2021/06/06 11:44:12;;;;;;;4.70;3.67;;;20.70;68.30;;;;;;4940844;29;20044;-59
2021/06/06 11:46:41;;;;;;;5.35;3.95;;;20.60;68.20;;;;;;4924816;29;20094;-60
2021/06/06 11:49:28;;;;;;;4.57;3.58;;;20.50;68.30;;;;;;4941929;29;20946;-60
2021/06/06 11:51:57;;;;;;;4.75;4.25;;;20.50;68.50;;;;;;4942288;29;20093;-60
2021/06/06 11:54:31;;;;;;;4.53;3.60;;;20.40;68.60;;;;;;4941962;29;20087;-61
2021/06/06 11:57:01;;;;;;;4.35;3.38;;;20.50;68.70;;;;;;4944010;29;20040;-61
2021/06/06 11:59:37;;;;;;;4.30;3.33;;;20.50;68.70;;;;;;4941491;29;20488;-63
2021/06/06 12:02:31;;;;;;;4.40;3.55;;;20.50;68.80;;;;;;4939728;29;20078;-61
2021/06/06 12:05:29;;;;;;;4.15;3.63;;;20.50;68.70;;;;;;4919053;29;20059;-61
2021/06/06 12:08:07;;;;;;;5.20;3.17;;;20.60;68.90;;;;;;4943926;29;21514;-61
2021/06/06 12:10:36;;;;;;;8.27;3.10;;;20.70;68.90;;;;;;4922870;29;20476;-64
2021/06/06 12:13:05;;;;;;;4.57;3.58;;;20.80;68.80;;;;;;4936501;28;20039;-62
2021/06/06 12:15:39;;;;;;;3.42;2.95;;;20.80;68.50;;;;;;4937977;29;20083;-64
2021/06/06 12:18:23;;;;;;;3.42;3.13;;;20.80;68.30;;;;;;4938377;29;20040;-62
2021/06/06 12:20:56;;;;;;;2.85;2.60;;;20.80;68.30;;;;;;4936939;28;20464;-61
2021/06/06 12:23:37;;;;;;;3.92;3.10;;;20.80;68.30;;;;;;4936007;29;20705;-63
2021/06/06 12:26:11;;;;;;;6.35;2.97;;;20.80;68.10;;;;;;4936264;28;20045;-62
2021/06/06 12:28:47;;;;;;;4.43;3.30;;;20.90;68.10;;;;;;4939509;28;20078;-65
2021/06/06 12:31:27;;;;;;;2.80;2.60;;;20.90;67.90;;;;;;4922730;29;20050;-65
2021/06/06 12:33:53;;;;;;;3.35;3.05;;;20.90;67.70;;;;;;4937069;28;20050;-61
2021/06/06 12:36:27;;;;;;;3.78;2.63;;;21.00;67.80;;;;;;4921754;29;20518;-63
2021/06/06 12:38:59;;;;;;;3.10;2.80;;;21.00;67.70;;;;;;4922975;29;20028;-63
2021/06/06 12:41:26;;;;;;;4.35;2.90;;;21.00;67.60;;;;;;4940050;29;20035;-63
2021/06/06 12:43:55;;;;;;;3.10;2.83;;;21.00;67.60;;;;;;4935279;28;20051;-64
2021/06/06 12:46:22;;;;;;;3.13;2.40;;;21.00;68.00;;;;;;4937295;28;20043;-63
2021/06/06 12:48:59;;;;;;;2.97;2.35;;;21.00;67.60;;;;;;4922421;29;20047;-63
2021/06/06 12:51:26;;;;;;;2.15;1.95;;;20.90;67.50;;;;;;4939214;28;20050;-64
2021/06/06 12:53:53;;;;;;;2.70;2.30;;;21.00;67.60;;;;;;4938279;29;20097;-64
2021/06/06 12:56:29;;;;;;;3.00;2.30;;;20.90;67.40;;;;;;4922837;29;20037;-61
2021/06/06 12:59:24;;;;;;;2.55;2.35;;;21.00;67.40;;;;;;4937291;29;20050;-61
2021/06/06 13:02:21;;;;;;;2.97;2.55;;;21.00;67.40;;;;;;4939323;28;20039;-61